Time;durP1;ratioP1;P1;durP2;ratioP2;P2;SDS_P1;SDS_P2;PMS_P1;PMS_P2;Temp;Humidity;BMP_temperature;BMP_pressure;BME280_temperature;BME280_humidity;BME280_pressure;Samples;Min_cycle;Max_cycle;Signal;HPM_P1;HPM_P2
2021/05/06 00:32:01;;;;;;;2.80;1.58;;;9.10;86.10;;;;;;5099338;28;27347;-58
2021/05/06 00:34:46;;;;;;;2.97;1.88;;;9.10;87.30;;;;;;5103367;28;27454;-57
2021/05/06 00:37:40;;;;;;;4.88;2.47;;;9.10;86.20;;;;;;5101847;28;27459;-57
2021/05/06 00:40:36;;;;;;;5.68;2.00;;;9.10;85.40;;;;;;5103182;28;27434;-57
2021/05/06 00:46:34;;;;;;;3.95;1.48;;;9.10;85.00;;;;;;5102457;28;27399;-57
2021/05/06 01:05:52;;;;;;;2.28;1.38;;;9.00;86.10;;;;;;5060214;28;27557;-57
2021/05/06 01:08:41;;;;;;;3.88;1.95;;;9.00;85.20;;;;;;5059875;28;27415;-58
2021/05/06 01:11:38;;;;;;;1.70;1.48;;;9.00;78.50;;;;;;5052517;28;27460;-58
2021/05/06 01:14:23;;;;;;;1.90;1.27;;;9.00;79.70;;;;;;5046463;28;27463;-58
2021/05/06 01:17:08;;;;;;;2.38;2.17;;;9.00;77.80;;;;;;5046761;28;27412;-58
2021/05/06 01:19:53;;;;;;;2.97;1.90;;;9.00;77.90;;;;;;5064088;28;27440;-57
2021/05/06 01:22:37;;;;;;;2.17;1.73;;;9.00;81.40;;;;;;5046588;28;27513;-57
2021/05/06 01:25:22;;;;;;;3.58;1.40;;;8.90;83.60;;;;;;5061136;28;27405;-57
2021/05/06 01:28:10;;;;;;;2.90;1.80;;;8.90;79.20;;;;;;5047995;28;27536;-57
2021/05/06 01:36:37;;;;;;;3.22;1.40;;;8.90;84.50;;;;;;5102040;28;27496;-57
2021/05/06 01:39:42;;;;;;;4.03;1.70;;;8.90;84.30;;;;;;5101844;28;27455;-57
2021/05/06 02:00:19;;;;;;;2.38;1.80;;;9.00;85.70;;;;;;5103672;28;27392;-58
2021/05/06 02:03:08;;;;;;;2.88;1.70;;;9.00;85.80;;;;;;5101675;28;27402;-58
2021/05/06 02:05:57;;;;;;;2.63;1.75;;;9.00;85.10;;;;;;5101415;28;27395;-58
2021/05/06 02:08:43;;;;;;;2.90;1.55;;;9.10;85.00;;;;;;5072842;28;27863;-58
2021/05/06 02:11:33;;;;;;;2.30;1.50;;;9.10;85.70;;;;;;5101383;28;27407;-57
2021/05/06 02:14:25;;;;;;;4.57;1.75;;;9.10;85.40;;;;;;5101130;28;27457;-57
2021/05/06 02:17:11;;;;;;;2.20;1.50;;;9.10;85.90;;;;;;5087064;28;27432;-56
2021/05/06 02:19:56;;;;;;;4.55;1.58;;;9.10;86.10;;;;;;5101179;27;27352;-57
2021/05/06 02:22:41;;;;;;;2.85;1.55;;;9.10;85.50;;;;;;5101040;28;27485;-56
2021/05/06 02:25:27;;;;;;;1.90;1.48;;;9.00;86.60;;;;;;5101164;28;27470;-57
2021/05/06 02:28:12;;;;;;;2.00;1.55;;;9.00;86.20;;;;;;5102639;28;27439;-54
2021/05/06 02:30:57;;;;;;;3.08;1.65;;;9.00;85.80;;;;;;5101712;28;27446;-58
2021/05/06 02:33:42;;;;;;;2.88;1.55;;;9.00;86.00;;;;;;5105031;28;27450;-58
2021/05/06 02:36:27;;;;;;;2.58;1.50;;;9.10;86.00;;;;;;5105012;28;27435;-57
2021/05/06 02:39:11;;;;;;;2.67;1.58;;;9.00;84.90;;;;;;5104927;28;27423;-58
2021/05/06 02:41:56;;;;;;;2.63;1.42;;;9.00;87.00;;;;;;5104994;28;27423;-58
2021/05/06 02:44:41;;;;;;;3.10;1.20;;;9.00;86.00;;;;;;5104838;28;27414;-58
2021/05/06 02:47:27;;;;;;;5.93;1.70;;;9.00;86.60;;;;;;5104940;28;27411;-57
2021/05/06 02:50:14;;;;;;;2.03;1.33;;;9.00;86.60;;;;;;5104927;28;27457;-55
2021/05/06 03:04:34;;;;;;;2.33;1.45;;;8.90;85.60;;;;;;5104753;28;27399;-57
2021/05/06 03:07:23;;;;;;;3.55;1.88;;;8.90;85.30;;;;;;5103871;28;27428;-57
2021/05/06 03:11:17;;;;;;;4.85;2.92;;;8.90;84.90;;;;;;5104720;28;27384;-57
2021/05/06 03:22:48;;;;;;;3.30;1.83;;;8.80;86.00;;;;;;5104654;28;27378;-57
2021/05/06 03:25:32;;;;;;;2.47;1.35;;;8.70;87.10;;;;;;5104236;28;27446;-57
2021/05/06 03:28:25;;;;;;;2.50;1.60;;;8.70;86.40;;;;;;5103608;28;27493;-57
2021/05/06 03:49:24;;;;;;;3.83;2.13;;;8.70;87.80;;;;;;5103433;28;27333;-57
2021/05/06 04:25:35;;;;;;;2.17;1.77;;;8.50;87.80;;;;;;5104437;28;27382;-57
2021/05/06 04:25:51;;;;;;;1.80;1.70;;;8.50;86.10;;;;;;5104807;28;27355;-57
2021/05/06 04:29:35;;;;;;;2.08;1.73;;;8.50;87.20;;;;;;5102302;28;27510;-57
2021/05/06 04:37:59;;;;;;;3.90;1.63;;;8.50;88.10;;;;;;5104676;28;27415;-57
2021/05/06 04:55:45;;;;;;;3.47;1.90;;;8.40;88.20;;;;;;5108056;28;27392;-57
2021/05/06 05:04:32;;;;;;;4.60;1.80;;;8.40;86.60;;;;;;5107893;28;27433;-57
2021/05/06 05:07:22;;;;;;;2.10;1.60;;;8.40;86.90;;;;;;5104562;28;27402;-57
2021/05/06 05:10:18;;;;;;;3.72;2.17;;;8.50;87.60;;;;;;5107396;28;27431;-58
2021/05/06 05:13:23;;;;;;;4.28;2.10;;;8.40;88.00;;;;;;5107414;28;27372;-58
2021/05/06 05:25:07;;;;;;;2.45;1.90;;;8.60;85.50;;;;;;5107443;28;27340;-57
2021/05/06 05:27:55;;;;;;;2.88;2.05;;;8.60;82.30;;;;;;5107015;28;27963;-57
2021/05/06 05:30:41;;;;;;;3.00;2.28;;;8.60;82.40;;;;;;5107189;28;27431;-57
2021/05/06 05:33:27;;;;;;;4.75;2.17;;;8.60;79.90;;;;;;5107100;28;27473;-58
2021/05/06 05:36:17;;;;;;;3.20;1.90;;;8.60;79.90;;;;;;5106547;28;27423;-57
2021/05/06 05:39:12;;;;;;;2.80;2.13;;;8.60;79.70;;;;;;5106694;28;27374;-56
2021/05/06 05:56:37;;;;;;;3.28;2.83;;;8.70;80.10;;;;;;5107212;28;27406;-57
2021/05/06 05:59:28;;;;;;;3.90;2.80;;;8.70;80.00;;;;;;5106917;28;27330;-55
2021/05/06 06:02:12;;;;;;;7.53;2.80;;;8.80;80.10;;;;;;5106827;28;27343;-56
2021/05/06 06:05:01;;;;;;;3.25;2.35;;;8.90;80.80;;;;;;5106113;28;27430;-56
2021/05/06 06:07:47;;;;;;;4.45;2.75;;;8.90;80.00;;;;;;5105921;28;27419;-56
2021/05/06 06:10:34;;;;;;;6.93;2.75;;;9.00;80.00;;;;;;5106939;28;27465;-55
2021/05/06 06:13:20;;;;;;;4.82;2.50;;;9.10;79.80;;;;;;5106397;28;28106;-57
2021/05/06 06:16:24;;;;;;;6.18;2.25;;;9.10;80.00;;;;;;5106513;28;27422;-56
2021/05/06 06:19:09;;;;;;;9.60;2.85;;;9.10;80.00;;;;;;5106792;28;27386;-57
2021/05/06 06:22:00;;;;;;;4.55;2.47;;;9.10;79.80;;;;;;5091753;28;27296;-56
2021/05/06 06:24:46;;;;;;;3.17;2.13;;;9.20;79.80;;;;;;5106625;28;27395;-56
2021/05/06 06:27:31;;;;;;;3.72;2.33;;;9.20;80.70;;;;;;5105893;28;27415;-56
2021/05/06 06:30:16;;;;;;;5.00;2.22;;;9.30;80.40;;;;;;5106378;28;27395;-56
2021/05/06 06:33:04;;;;;;;3.72;2.50;;;9.40;80.90;;;;;;5106121;28;27445;-57
2021/05/06 06:35:51;;;;;;;3.95;2.38;;;9.50;80.00;;;;;;5106551;28;27945;-57
2021/05/06 06:38:36;;;;;;;4.57;2.25;;;9.60;79.30;;;;;;5090394;28;27530;-57
2021/05/06 06:41:20;;;;;;;4.40;1.88;;;9.70;79.70;;;;;;5106468;28;27391;-56
2021/05/06 06:44:05;;;;;;;4.40;2.50;;;9.80;79.50;;;;;;5106161;28;27332;-57
2021/05/06 06:47:03;;;;;;;3.50;1.85;;;9.90;78.80;;;;;;5106038;28;27360;-57
2021/05/06 06:49:48;;;;;;;4.45;2.35;;;10.00;79.50;;;;;;5106441;28;27635;-57
2021/05/06 06:52:33;;;;;;;5.47;2.55;;;10.10;80.30;;;;;;5101949;28;27422;-58
2021/05/06 06:55:17;;;;;;;6.13;2.15;;;10.30;80.60;;;;;;5106198;28;27332;-57
2021/05/06 06:58:12;;;;;;;4.63;2.50;;;10.50;80.80;;;;;;5106109;28;27336;-58
2021/05/06 07:00:57;;;;;;;4.50;2.33;;;10.80;79.70;;;;;;5105652;28;27371;-58
2021/05/06 07:03:42;;;;;;;4.15;2.80;;;10.90;79.40;;;;;;5102760;28;27417;-58
2021/05/06 07:06:26;;;;;;;8.15;3.47;;;11.00;79.70;;;;;;5104748;27;27331;-59
2021/05/06 07:09:11;;;;;;;5.75;2.28;;;11.10;79.90;;;;;;5104989;28;27956;-58
2021/05/06 07:11:56;;;;;;;5.97;2.63;;;11.10;80.20;;;;;;5105859;28;27417;-58
2021/05/06 07:14:40;;;;;;;5.78;2.30;;;11.20;80.10;;;;;;5105444;28;27362;-58
2021/05/06 07:17:25;;;;;;;4.35;2.35;;;11.30;80.60;;;;;;5104989;28;27344;-59
2021/05/06 07:20:10;;;;;;;3.78;2.42;;;11.40;80.30;;;;;;5104651;28;27387;-58
2021/05/06 07:22:54;;;;;;;4.75;2.00;;;11.50;80.00;;;;;;5104841;28;27360;-59
2021/05/06 07:25:39;;;;;;;4.95;2.67;;;11.60;80.10;;;;;;5101602;28;27318;-59
2021/05/06 07:28:40;;;;;;;7.80;2.40;;;11.70;80.60;;;;;;5104509;28;27587;-59
2021/05/06 07:31:25;;;;;;;5.25;2.47;;;12.10;78.60;;;;;;5105701;28;27483;-59
2021/05/06 07:34:09;;;;;;;6.47;2.90;;;12.50;77.30;;;;;;5104957;28;27439;-59
2021/05/06 07:36:54;;;;;;;7.93;2.85;;;12.90;75.70;;;;;;5105437;28;27419;-59
2021/05/06 07:39:38;;;;;;;9.38;2.90;;;13.20;74.90;;;;;;5105512;28;27442;-60
2021/05/06 07:42:23;;;;;;;3.63;2.15;;;13.40;73.30;;;;;;5105149;28;27985;-59
2021/05/06 07:45:08;;;;;;;8.60;3.15;;;13.60;73.20;;;;;;5105132;28;27332;-60
2021/05/06 07:47:53;;;;;;;5.93;1.92;;;13.90;73.30;;;;;;5105227;28;27326;-60
2021/05/06 07:50:38;;;;;;;6.45;2.25;;;14.00;72.90;;;;;;5105265;28;27384;-60
2021/05/06 07:53:25;;;;;;;6.35;2.50;;;14.30;73.30;;;;;;5104477;28;27334;-60
2021/05/06 07:56:10;;;;;;;6.85;3.03;;;14.40;71.20;;;;;;5104901;28;27481;-60
2021/05/06 07:58:55;;;;;;;4.47;1.90;;;14.50;71.90;;;;;;5104951;28;27426;-60
2021/05/06 08:01:39;;;;;;;6.47;1.90;;;14.50;72.10;;;;;;5104951;28;27458;-60
2021/05/06 08:04:25;;;;;;;4.53;2.00;;;14.50;73.40;;;;;;5104804;28;27462;-60
2021/05/06 08:07:10;;;;;;;9.18;2.40;;;14.50;73.10;;;;;;5104990;28;27465;-60
2021/05/06 08:09:55;;;;;;;10.45;1.92;;;14.40;71.90;;;;;;5104881;28;27415;-60
2021/05/06 08:12:40;;;;;;;3.80;1.70;;;14.20;72.90;;;;;;5105017;28;27412;-60
2021/05/06 08:15:25;;;;;;;4.78;1.92;;;14.10;74.50;;;;;;5104722;28;27430;-60
2021/05/06 08:18:10;;;;;;;5.03;1.80;;;13.90;75.90;;;;;;5104377;27;27506;-59
2021/05/06 08:20:54;;;;;;;4.95;1.98;;;13.70;75.70;;;;;;5104684;28;27446;-60
2021/05/06 08:23:40;;;;;;;7.65;2.38;;;13.50;74.20;;;;;;5104667;28;27426;-60
2021/05/06 08:26:27;;;;;;;5.70;2.03;;;13.40;74.10;;;;;;5104826;28;27449;-59
2021/05/06 08:29:11;;;;;;;3.97;1.63;;;13.20;74.50;;;;;;5104002;28;27505;-59
2021/05/06 08:31:56;;;;;;;4.43;1.90;;;13.10;74.70;;;;;;5104797;28;27434;-59
2021/05/06 08:34:41;;;;;;;8.02;2.25;;;12.90;75.00;;;;;;5104515;28;27423;-60
2021/05/06 08:37:25;;;;;;;6.50;2.00;;;12.80;75.70;;;;;;5104664;28;27431;-59
2021/05/06 08:40:11;;;;;;;6.13;2.65;;;12.70;75.80;;;;;;5104652;28;27410;-59
2021/05/06 08:42:55;;;;;;;8.48;2.38;;;12.60;74.70;;;;;;5104708;28;27424;-59
2021/05/06 08:45:47;;;;;;;3.40;2.17;;;12.50;74.10;;;;;;5104242;28;27460;-59
2021/05/06 08:48:32;;;;;;;9.23;2.60;;;12.50;73.90;;;;;;5102337;28;27965;-58
2021/05/06 08:51:17;;;;;;;7.40;2.55;;;12.30;74.10;;;;;;5104208;28;27387;-59
2021/05/06 08:54:02;;;;;;;7.32;2.40;;;12.30;74.00;;;;;;5103657;28;27379;-59
2021/05/06 08:56:46;;;;;;;6.53;2.38;;;12.20;73.70;;;;;;5104251;28;27382;-59
2021/05/06 08:59:31;;;;;;;5.55;2.50;;;12.10;74.20;;;;;;5103613;28;27404;-59
2021/05/06 09:02:16;;;;;;;8.82;3.08;;;12.00;74.40;;;;;;5100312;28;27399;-59
2021/05/06 09:05:06;;;;;;;11.43;3.17;;;12.00;75.20;;;;;;5104369;28;27316;-59
2021/05/06 09:07:51;;;;;;;8.15;2.20;;;11.90;75.70;;;;;;5103996;28;27415;-59
2021/05/06 09:10:36;;;;;;;3.20;1.65;;;11.90;75.70;;;;;;5104288;28;27420;-59
2021/05/06 09:13:27;;;;;;;5.80;1.90;;;11.90;75.90;;;;;;5103623;28;27565;-59
2021/05/06 09:16:12;;;;;;;4.65;2.13;;;11.80;75.90;;;;;;5104093;28;27362;-59
2021/05/06 09:19:03;;;;;;;7.32;1.52;;;11.80;75.30;;;;;;5104056;28;27336;-59
2021/05/06 09:21:48;;;;;;;5.63;1.98;;;11.80;76.50;;;;;;5089607;28;27514;-59
2021/05/06 09:24:35;;;;;;;3.33;1.77;;;11.80;76.00;;;;;;5103617;28;27457;-59
2021/05/06 09:27:27;;;;;;;5.22;1.88;;;11.70;74.80;;;;;;5102454;28;27360;-59
2021/05/06 09:30:12;;;;;;;4.00;1.73;;;11.70;75.90;;;;;;5087720;28;27493;-59
2021/05/06 09:33:04;;;;;;;3.30;1.35;;;11.70;76.40;;;;;;5107070;28;27888;-59
2021/05/06 09:35:49;;;;;;;3.92;1.63;;;11.70;76.30;;;;;;5107187;28;27481;-59
2021/05/06 09:38:49;;;;;;;6.00;1.83;;;11.60;76.10;;;;;;5107519;28;27457;-59
2021/05/06 09:41:35;;;;;;;6.22;1.77;;;11.60;76.20;;;;;;5107067;28;27390;-59
2021/05/06 09:44:20;;;;;;;5.95;1.63;;;11.60;76.00;;;;;;5107274;28;27390;-59
2021/05/06 09:47:15;;;;;;;4.30;1.50;;;11.60;76.10;;;;;;5103013;28;27409;-59
2021/05/06 09:49:59;;;;;;;2.80;1.42;;;11.60;76.20;;;;;;5107044;28;27329;-58
2021/05/06 09:52:53;;;;;;;3.03;1.90;;;11.60;75.90;;;;;;5106952;28;27397;-59
2021/05/06 09:55:40;;;;;;;1.52;1.33;;;11.50;76.10;;;;;;5107158;28;27356;-59
2021/05/06 09:58:28;;;;;;;3.33;1.45;;;11.50;75.60;;;;;;5107113;28;27485;-58
2021/05/06 10:01:13;;;;;;;3.03;1.33;;;11.50;76.00;;;;;;5106965;28;27339;-59
2021/05/06 10:04:11;;;;;;;4.07;1.20;;;11.50;75.70;;;;;;5107035;28;27327;-58
2021/05/06 10:07:14;;;;;;;4.45;1.77;;;11.50;76.10;;;;;;5106234;28;27428;-59
2021/05/06 10:10:04;;;;;;;2.35;1.17;;;11.50;75.50;;;;;;5106542;28;27589;-58
2021/05/06 10:12:49;;;;;;;3.72;1.13;;;11.50;76.60;;;;;;5106603;28;27398;-58
2021/05/06 10:15:34;;;;;;;3.10;1.25;;;11.40;77.20;;;;;;5106483;28;27344;-58
2021/05/06 10:18:19;;;;;;;2.17;1.17;;;11.50;77.10;;;;;;5106758;28;27414;-58
2021/05/06 10:21:04;;;;;;;1.45;1.00;;;11.50;77.20;;;;;;5106501;28;27339;-58
2021/05/06 10:23:50;;;;;;;5.60;1.60;;;11.50;77.50;;;;;;5091486;28;27454;-58
2021/05/06 10:26:35;;;;;;;2.05;1.10;;;11.60;77.30;;;;;;5106521;28;27318;-59
2021/05/06 10:29:20;;;;;;;2.17;1.30;;;11.70;77.00;;;;;;5105601;28;27386;-59
2021/05/06 10:32:09;;;;;;;2.33;1.30;;;11.80;77.30;;;;;;5091352;28;27373;-59
2021/05/06 10:34:55;;;;;;;2.95;0.98;;;11.90;77.70;;;;;;5105472;28;27427;-60
2021/05/06 10:37:44;;;;;;;1.95;1.38;;;12.10;78.40;;;;;;5102596;28;27526;-59
2021/05/06 10:40:38;;;;;;;3.30;1.33;;;12.20;78.20;;;;;;5105351;27;27398;-59
2021/05/06 10:43:26;;;;;;;4.85;1.38;;;12.30;78.30;;;;;;5106476;28;27396;-59
2021/05/06 10:46:11;;;;;;;1.73;1.40;;;12.50;78.10;;;;;;5106229;28;27386;-59
2021/05/06 10:48:57;;;;;;;1.48;0.80;;;12.70;78.00;;;;;;5106495;28;27315;-59
2021/05/06 10:51:45;;;;;;;2.90;1.10;;;12.80;77.80;;;;;;5105548;28;27336;-59
2021/05/06 10:54:34;;;;;;;2.80;1.00;;;12.90;77.40;;;;;;5105851;28;27485;-59
2021/05/06 10:57:26;;;;;;;1.50;1.05;;;13.00;77.80;;;;;;5106040;28;27336;-59
2021/05/06 11:00:20;;;;;;;1.58;1.10;;;13.10;77.80;;;;;;5105857;28;27462;-59
2021/05/06 11:03:06;;;;;;;1.00;0.80;;;13.30;77.30;;;;;;5105424;28;27452;-59
2021/05/06 11:05:51;;;;;;;2.33;0.93;;;13.40;77.90;;;;;;5105009;28;27529;-59
2021/05/06 11:08:35;;;;;;;1.40;1.30;;;13.60;77.60;;;;;;5105740;28;27499;-60
2021/05/06 11:11:20;;;;;;;1.33;0.90;;;13.80;76.50;;;;;;5105914;28;27418;-60
2021/05/06 11:14:10;;;;;;;2.20;0.98;;;14.00;76.30;;;;;;5105353;28;27460;-60
2021/05/06 11:17:18;;;;;;;4.13;1.23;;;14.20;77.40;;;;;;5105814;28;27403;-60
2021/05/06 11:20:09;;;;;;;2.42;1.10;;;14.30;77.80;;;;;;5105412;28;27335;-60
2021/05/06 11:22:57;;;;;;;2.15;0.95;;;14.30;77.60;;;;;;5105831;28;27369;-60
2021/05/06 11:25:47;;;;;;;2.42;1.00;;;14.40;75.80;;;;;;5105693;28;27404;-60
2021/05/06 11:28:31;;;;;;;1.45;1.00;;;14.40;76.00;;;;;;5102966;28;27460;-60
2021/05/06 11:31:17;;;;;;;1.48;0.90;;;14.30;75.90;;;;;;5101369;28;27461;-60
2021/05/06 11:34:28;;;;;;;1.75;1.35;;;14.30;76.10;;;;;;5105420;28;27429;-60
2021/05/06 11:37:14;;;;;;;2.15;1.00;;;14.30;76.00;;;;;;5105536;28;27849;-61
2021/05/06 11:40:09;;;;;;;2.15;0.73;;;14.30;77.00;;;;;;5105228;28;27431;-60
2021/05/06 11:42:55;;;;;;;1.25;0.90;;;14.20;75.40;;;;;;5105258;28;27474;-60
2021/05/06 11:45:40;;;;;;;1.20;0.90;;;14.20;73.90;;;;;;5105138;28;27415;-60
2021/05/06 11:48:36;;;;;;;1.02;0.93;;;14.30;75.20;;;;;;5105180;28;27896;-60
2021/05/06 11:51:30;;;;;;;1.40;1.00;;;14.30;75.60;;;;;;5105070;28;27391;-60
2021/05/06 11:54:19;;;;;;;2.15;1.25;;;14.20;74.10;;;;;;5101379;28;27462;-60
2021/05/06 11:57:05;;;;;;;1.23;1.13;;;14.30;75.00;;;;;;5105277;28;27389;-60
2021/05/06 11:59:50;;;;;;;2.08;1.13;;;14.20;74.70;;;;;;5104241;28;27391;-60
2021/05/06 12:02:34;;;;;;;1.85;1.38;;;14.20;74.90;;;;;;5104475;28;27391;-60
2021/05/06 12:05:19;;;;;;;5.95;2.92;;;14.20;74.90;;;;;;5104425;28;27427;-60
2021/05/06 12:08:04;;;;;;;1.90;1.45;;;14.10;74.20;;;;;;5104742;28;27477;-60
2021/05/06 12:10:49;;;;;;;1.73;1.27;;;14.00;75.50;;;;;;5101438;28;27398;-60
2021/05/06 12:13:35;;;;;;;2.45;1.60;;;13.90;76.00;;;;;;5104796;28;27532;-59
2021/05/06 12:16:21;;;;;;;1.73;1.60;;;13.90;75.60;;;;;;5104478;28;27376;-60
2021/05/06 12:19:12;;;;;;;2.90;1.67;;;13.80;75.80;;;;;;5104094;28;27434;-60
2021/05/06 12:21:58;;;;;;;2.40;1.55;;;13.80;75.40;;;;;;5104398;28;27489;-60
2021/05/06 12:24:45;;;;;;;2.25;1.83;;;13.70;75.40;;;;;;5101243;28;27505;-60
2021/05/06 12:27:31;;;;;;;1.98;1.38;;;13.60;75.50;;;;;;5104153;28;27354;-59
2021/05/06 12:30:16;;;;;;;2.22;1.50;;;13.50;75.60;;;;;;5104451;28;27301;-60
2021/05/06 12:33:01;;;;;;;3.72;1.90;;;13.50;75.90;;;;;;5099903;28;27948;-60
2021/05/06 12:35:52;;;;;;;3.63;2.42;;;13.40;76.10;;;;;;5101066;28;27325;-60
2021/05/06 12:38:37;;;;;;;3.20;2.25;;;13.30;75.90;;;;;;5104670;28;27485;-60
2021/05/06 12:41:22;;;;;;;3.83;2.15;;;13.30;76.60;;;;;;5103798;28;27459;-60
2021/05/06 12:44:06;;;;;;;3.20;2.20;;;13.20;76.90;;;;;;5104414;28;27422;-60
2021/05/06 12:46:51;;;;;;;2.10;1.65;;;13.20;77.20;;;;;;5103455;28;27439;-59
2021/05/06 12:49:36;;;;;;;2.38;1.83;;;13.10;77.20;;;;;;5103113;28;27466;-59
2021/05/06 12:52:34;;;;;;;3.65;1.90;;;13.00;77.40;;;;;;5085811;28;27431;-60
2021/05/06 12:55:25;;;;;;;3.60;2.38;;;13.00;78.00;;;;;;5103287;28;27439;-59
2021/05/06 12:58:15;;;;;;;4.88;2.40;;;13.00;77.90;;;;;;5104068;28;27490;-59
2021/05/06 13:00:59;;;;;;;4.05;2.05;;;12.90;77.70;;;;;;5104039;28;27428;-59
2021/05/06 13:03:45;;;;;;;3.55;2.13;;;12.80;77.50;;;;;;5103993;28;27403;-60
2021/05/06 13:06:34;;;;;;;4.03;2.78;;;12.70;77.90;;;;;;5107621;28;27316;-60
2021/05/06 13:09:18;;;;;;;3.13;1.98;;;12.70;78.70;;;;;;5104439;28;27667;-58
2021/05/06 13:12:10;;;;;;;3.38;2.10;;;12.60;78.00;;;;;;5107693;28;27364;-59
2021/05/06 13:15:03;;;;;;;3.85;2.08;;;12.60;78.20;;;;;;5107470;28;27508;-59
2021/05/06 13:17:48;;;;;;;6.07;2.05;;;12.50;79.30;;;;;;5104408;28;27402;-59
2021/05/06 13:20:33;;;;;;;5.32;2.40;;;12.40;80.20;;;;;;5107554;28;27520;-60
2021/05/06 13:23:31;;;;;;;4.43;1.85;;;12.40;79.70;;;;;;5092305;28;27474;-59
2021/05/06 13:26:15;;;;;;;3.42;1.80;;;12.40;78.50;;;;;;5107361;28;27378;-59
2021/05/06 13:29:15;;;;;;;3.13;1.27;;;12.30;79.10;;;;;;5092071;28;27905;-59
2021/05/06 13:32:00;;;;;;;3.38;1.60;;;12.20;79.40;;;;;;5107372;28;27521;-59
2021/05/06 13:34:54;;;;;;;3.65;2.05;;;12.20;80.40;;;;;;5092181;28;27451;-59
2021/05/06 13:37:43;;;;;;;3.03;1.70;;;12.10;80.30;;;;;;5107050;28;27397;-59
2021/05/06 13:40:27;;;;;;;3.28;2.58;;;12.10;80.60;;;;;;5107141;28;27407;-59
2021/05/06 13:43:12;;;;;;;6.25;2.95;;;12.10;80.20;;;;;;5106910;28;27453;-59
2021/05/06 13:45:56;;;;;;;3.58;2.13;;;12.10;80.00;;;;;;5106949;28;27467;-59
2021/05/06 13:48:41;;;;;;;2.38;1.70;;;12.10;80.60;;;;;;5103998;28;27410;-59
2021/05/06 13:51:26;;;;;;;4.22;2.08;;;12.00;80.40;;;;;;5106305;28;27489;-59
2021/05/06 13:54:11;;;;;;;1.98;1.60;;;12.00;81.00;;;;;;5106768;28;27481;-59
2021/05/06 13:56:55;;;;;;;5.82;2.13;;;12.00;80.50;;;;;;5106628;28;27422;-59
2021/05/06 13:59:40;;;;;;;3.25;2.00;;;12.00;81.20;;;;;;5107151;28;27392;-59
2021/05/06 14:02:26;;;;;;;3.53;2.03;;;11.90;81.10;;;;;;5106724;28;27439;-59
2021/05/06 14:05:12;;;;;;;4.90;2.15;;;12.00;82.00;;;;;;5106780;28;27464;-58
2021/05/06 14:07:56;;;;;;;2.58;1.70;;;11.90;81.70;;;;;;5106795;28;27403;-59
2021/05/06 14:10:42;;;;;;;3.15;1.83;;;11.90;81.70;;;;;;5103631;28;27575;-58
2021/05/06 14:13:26;;;;;;;2.33;1.40;;;11.90;82.10;;;;;;5106868;28;27528;-59
2021/05/06 14:16:11;;;;;;;2.58;1.40;;;11.90;82.00;;;;;;5106200;27;27470;-59
2021/05/06 14:18:56;;;;;;;2.22;1.35;;;11.90;81.90;;;;;;5105790;28;27486;-59
2021/05/06 14:21:42;;;;;;;1.88;1.25;;;11.80;81.90;;;;;;5106449;28;27501;-59
2021/05/06 14:24:27;;;;;;;3.63;1.20;;;11.80;81.00;;;;;;5106636;28;27403;-59
2021/05/06 14:27:12;;;;;;;4.15;1.13;;;11.80;81.40;;;;;;5106044;28;27489;-59
2021/05/06 14:29:56;;;;;;;1.17;0.98;;;11.70;82.00;;;;;;5105554;28;27428;-59
2021/05/06 14:32:41;;;;;;;1.73;1.02;;;11.70;81.10;;;;;;5106501;28;27400;-59
2021/05/06 14:35:26;;;;;;;3.22;0.98;;;11.60;81.70;;;;;;5106406;28;27498;-59
2021/05/06 14:38:11;;;;;;;2.85;1.58;;;11.60;82.50;;;;;;5105818;28;27456;-58
2021/05/06 14:40:55;;;;;;;4.88;1.60;;;11.60;82.20;;;;;;5106407;28;27348;-59
2021/05/06 14:43:40;;;;;;;5.78;1.77;;;11.60;82.30;;;;;;5106087;28;27419;-58
2021/05/06 14:46:25;;;;;;;1.30;1.20;;;11.60;82.70;;;;;;5106057;28;27474;-59
2021/05/06 14:49:10;;;;;;;1.45;1.20;;;11.60;82.80;;;;;;5105518;28;27419;-59
2021/05/06 14:51:55;;;;;;;1.77;1.30;;;11.60;83.30;;;;;;5105993;28;27442;-59
2021/05/06 14:54:44;;;;;;;3.50;1.40;;;11.60;83.30;;;;;;5105662;28;27451;-59
2021/05/06 14:57:29;;;;;;;4.60;1.55;;;11.60;83.40;;;;;;5106190;28;27989;-59
2021/05/06 15:00:14;;;;;;;3.58;1.60;;;11.70;83.30;;;;;;5105000;28;27503;-59
2021/05/06 15:03:00;;;;;;;5.10;1.70;;;11.70;83.40;;;;;;5105723;28;27427;-59
2021/05/06 15:05:44;;;;;;;2.70;1.65;;;11.70;83.30;;;;;;5102554;28;27371;-59
2021/05/06 15:08:29;;;;;;;1.67;1.13;;;11.70;84.10;;;;;;5105654;28;27423;-59
2021/05/06 15:11:14;;;;;;;4.30;1.50;;;11.70;84.00;;;;;;5105958;28;27387;-59
2021/05/06 15:13:59;;;;;;;1.83;1.63;;;11.70;84.00;;;;;;5105068;28;27440;-59
2021/05/06 15:16:43;;;;;;;4.85;2.00;;;11.70;83.50;;;;;;5105057;28;27462;-59
2021/05/06 15:19:28;;;;;;;6.88;3.22;;;11.70;83.80;;;;;;5105823;28;27461;-59
2021/05/06 15:22:13;;;;;;;3.88;1.88;;;11.60;83.40;;;;;;5105387;28;27485;-59
2021/05/06 15:24:57;;;;;;;5.68;3.20;;;11.60;83.30;;;;;;5105606;28;27443;-59
2021/05/06 15:27:42;;;;;;;4.75;2.55;;;11.60;83.70;;;;;;5104235;27;27430;-59
2021/05/06 15:30:27;;;;;;;3.33;1.70;;;11.60;83.30;;;;;;5105150;28;27934;-58
2021/05/06 15:33:12;;;;;;;2.42;1.55;;;11.50;83.80;;;;;;5101926;28;27415;-58
2021/05/06 15:35:57;;;;;;;2.92;1.23;;;11.50;84.00;;;;;;5101296;28;27426;-58
2021/05/06 15:38:41;;;;;;;3.45;2.08;;;11.50;84.00;;;;;;5102176;28;27398;-58
2021/05/06 15:41:26;;;;;;;2.08;1.00;;;11.40;84.20;;;;;;5105232;28;27454;-58
2021/05/06 15:44:11;;;;;;;3.78;1.63;;;11.40;83.90;;;;;;5105125;28;27442;-58
2021/05/06 15:46:59;;;;;;;1.75;1.30;;;11.40;84.60;;;;;;5105393;28;27408;-59
2021/05/06 15:49:43;;;;;;;2.22;1.40;;;11.40;84.60;;;;;;5105474;28;27428;-59
2021/05/06 15:52:28;;;;;;;2.08;1.15;;;11.40;85.20;;;;;;5105086;28;27416;-59
2021/05/06 15:55:13;;;;;;;1.40;1.30;;;11.40;85.30;;;;;;5104710;28;27407;-58
2021/05/06 15:57:58;;;;;;;2.65;1.33;;;11.40;85.00;;;;;;5105284;28;27484;-59
2021/05/06 16:00:42;;;;;;;1.17;0.80;;;11.40;85.10;;;;;;5101865;28;27456;-59
2021/05/06 16:03:30;;;;;;;3.22;1.65;;;11.40;84.80;;;;;;5104843;28;27490;-58
2021/05/06 16:06:15;;;;;;;1.40;1.10;;;11.30;85.00;;;;;;5104743;28;27356;-59
2021/05/06 16:09:00;;;;;;;3.47;1.33;;;11.30;84.80;;;;;;5104767;28;27337;-59
2021/05/06 16:11:45;;;;;;;3.63;1.50;;;11.30;85.00;;;;;;5105070;28;27312;-59
2021/05/06 16:14:30;;;;;;;1.52;1.15;;;11.30;85.10;;;;;;5104405;28;27336;-59
2021/05/06 16:17:15;;;;;;;3.53;1.17;;;11.30;85.40;;;;;;5101450;28;27539;-58
2021/05/06 16:20:03;;;;;;;3.10;1.55;;;11.20;85.30;;;;;;5104630;28;27391;-59
2021/05/06 16:22:48;;;;;;;3.20;1.30;;;11.20;85.40;;;;;;5104626;28;27347;-58
2021/05/06 16:25:32;;;;;;;1.52;1.20;;;11.20;85.80;;;;;;5104174;28;27364;-58
2021/05/06 16:28:17;;;;;;;2.10;1.30;;;11.30;86.40;;;;;;5103921;28;27442;-58
2021/05/06 16:31:03;;;;;;;1.23;1.05;;;11.30;87.60;;;;;;5104558;28;27420;-58
2021/05/06 16:34:00;;;;;;;1.45;0.98;;;11.40;88.60;;;;;;5104636;28;27397;-59
2021/05/06 16:36:51;;;;;;;1.42;1.00;;;11.50;88.20;;;;;;5104436;28;27413;-59
2021/05/06 16:40:00;;;;;;;1.10;0.90;;;11.50;87.50;;;;;;5100477;28;27312;-58
2021/05/06 16:45:30;;;;;;;1.55;1.30;;;11.50;88.10;;;;;;5104495;28;26898;-58
2021/05/06 16:48:15;;;;;;;3.47;2.15;;;11.50;87.30;;;;;;5104096;28;27415;-58
2021/05/06 16:51:00;;;;;;;3.47;2.42;;;11.50;87.50;;;;;;5104311;28;27427;-58
2021/05/06 16:53:45;;;;;;;2.70;1.85;;;11.50;87.30;;;;;;5104081;28;27427;-58
2021/05/06 16:56:30;;;;;;;3.35;2.10;;;11.50;87.10;;;;;;5104399;28;27476;-58
2021/05/06 16:59:14;;;;;;;3.13;2.25;;;11.40;87.20;;;;;;5103943;28;28020;-58
2021/05/06 17:01:59;;;;;;;5.70;3.45;;;11.40;87.50;;;;;;5104339;28;27475;-58
2021/05/06 17:04:44;;;;;;;5.30;3.30;;;11.40;87.20;;;;;;5104102;28;27400;-59
2021/05/06 17:07:28;;;;;;;3.80;2.25;;;11.40;87.40;;;;;;5104296;28;27358;-58
2021/05/06 17:10:14;;;;;;;3.83;2.30;;;11.40;87.50;;;;;;5104139;28;27969;-58
2021/05/06 17:13:02;;;;;;;3.20;2.40;;;11.30;87.40;;;;;;5104234;28;27745;-58
2021/05/06 17:15:50;;;;;;;6.65;3.25;;;11.30;87.10;;;;;;5104002;28;27402;-58
2021/05/06 17:18:35;;;;;;;2.97;1.70;;;11.30;87.40;;;;;;5104218;28;27355;-58
2021/05/06 17:21:20;;;;;;;2.90;1.58;;;11.30;87.40;;;;;;5103805;28;27376;-58
2021/05/06 17:24:05;;;;;;;2.03;1.30;;;11.30;87.20;;;;;;5104105;28;27322;-58
2021/05/06 17:26:50;;;;;;;1.83;1.25;;;11.30;87.20;;;;;;5103155;28;27336;-58
2021/05/06 17:29:35;;;;;;;2.38;1.45;;;11.30;87.10;;;;;;5103785;28;27374;-59
2021/05/06 17:32:20;;;;;;;4.00;1.25;;;11.30;87.20;;;;;;5103943;28;27969;-59
2021/05/06 17:35:11;;;;;;;1.23;1.00;;;11.30;87.30;;;;;;5103382;28;27490;-58
2021/05/06 17:37:56;;;;;;;1.48;1.13;;;11.30;87.10;;;;;;5103969;28;27431;-58
2021/05/06 17:40:41;;;;;;;1.30;0.90;;;11.30;87.30;;;;;;5103647;28;27461;-58
2021/05/06 17:43:25;;;;;;;1.80;1.45;;;11.30;87.20;;;;;;5103542;28;27526;-59
2021/05/06 17:46:11;;;;;;;2.40;1.52;;;11.30;87.50;;;;;;5103460;28;27465;-58
2021/05/06 17:48:56;;;;;;;3.67;1.50;;;11.30;87.50;;;;;;5103314;28;27466;-59
2021/05/06 17:51:42;;;;;;;2.35;1.17;;;11.30;87.60;;;;;;5105618;27;27400;-59